Time,TemperatureF,DewpointF,PressureIn,WindDirection,WindDirectionDegrees,WindSpeedMPH,WindSpeedGustMPH,Humidity,HourlyPrecipIn,Conditions,Clouds,dailyrainin,SoftwareType,DateUTC
2013-04-30 00:08:00,48.5,20.0,29.76,North,352,0.0,2.0,32,0.00,,,0.00,weatherlink.com 1.10,2013-04-30 07:08:00,
2013-04-30 00:23:00,47.4,20.0,29.75,North,352,1.0,2.0,34,0.00,,,0.00,weatherlink.com 1.10,2013-04-30 07:23:00,
2013-04-30 00:38:00,-999.0,-99.9,29.75,North,-999,-999.0,-999.0,-999,0.00,,,0.00,weatherlink.com 1.10,2013-04-30 07:38:00,
2013-04-30 00:53:00,-999.0,-99.9,29.74,North,-999,-999.0,-999.0,-999,0.00,,,0.00,weatherlink.com 1.10,2013-04-30 07:53:00,
2013-04-30 01:08:00,45.1,20.0,29.74,North,352,0.0,1.0,37,0.00,,,0.00,weatherlink.com 1.10,2013-04-30 08:08:00,
2013-04-30 01:23:00,44.7,20.0,29.74,North,352,0.0,2.0,38,0.00,,,0.00,weatherlink.com 1.10,2013-04-30 08:23:00,
2013-04-30 01:39:00,44.2,20.0,29.75,North,352,0.0,2.0,39,0.00,,,0.00,weatherlink.com 1.10,2013-04-30 08:39:00,
2013-04-30 01:53:00,43.8,20.0,29.74,North,352,0.0,2.0,39,0.00,,,0.00,weatherlink.com 1.10,2013-04-30 08:53:00,
2013-04-30 02:08:00,43.7,21.0,29.75,North,352,0.0,3.0,40,0.00,,,0.00,weatherlink.com 1.10,2013-04-30 09:08:00,
2013-04-30 02:23:00,43.9,21.0,29.75,North,352,0.0,3.0,40,0.00,,,0.00,weatherlink.com 1.10,2013-04-30 09:23:00,
2013-04-30 02:38:00,44.0,21.0,29.75,North,352,0.0,1.0,40,0.00,,,0.00,weatherlink.com 1.10,2013-04-30 09:38:00,
2013-04-30 02:53:00,45.1,20.0,29.75,North,352,0.0,1.0,37,0.00,,,0.00,weatherlink.com 1.10,2013-04-30 09:53:00,
2013-04-30 03:08:00,47.2,21.0,29.75,North,352,0.0,2.0,35,0.00,,,0.00,weatherlink.com 1.10,2013-04-30 10:08:00,
2013-04-30 03:23:00,48.2,22.0,29.75,North,352,0.0,1.0,35,0.00,,,0.00,weatherlink.com 1.10,2013-04-30 10:23:00,
2013-04-30 03:38:00,48.9,21.0,29.75,North,352,1.0,1.0,34,0.00,,,0.00,weatherlink.com 1.10,2013-04-30 10:38:00,
2013-04-30 03:53:00,48.7,21.0,29.75,North,352,0.0,0.0,34,0.00,,,0.00,weatherlink.com 1.10,2013-04-30 10:53:00,
2013-04-30 04:08:00,47.3,22.0,29.74,North,352,2.0,2.0,37,0.00,,,0.00,weatherlink.com 1.10,2013-04-30 11:08:00,
2013-04-30 04:23:00,45.2,22.0,29.74,North,352,0.0,2.0,40,0.00,,,0.00,weatherlink.com 1.10,2013-04-30 11:23:00,
2013-04-30 04:38:00,43.7,22.0,29.74,North,352,0.0,2.0,43,0.00,,,0.00,weatherlink.com 1.10,2013-04-30 11:38:00,
2013-04-30 04:53:00,42.6,22.0,29.74,North,352,1.0,1.0,44,0.00,,,0.00,weatherlink.com 1.10,2013-04-30 11:53:00,
2013-04-30 05:08:00,41.5,21.0,29.74,North,352,2.0,2.0,45,0.00,,,0.00,weatherlink.com 1.10,2013-04-30 12:08:00,
2013-04-30 05:23:00,40.6,22.0,29.74,North,352,0.0,1.0,47,0.00,,,0.00,weatherlink.com 1.10,2013-04-30 12:23:00,
2013-04-30 05:38:00,40.0,22.0,29.75,North,352,1.0,2.0,48,0.00,,,0.00,weatherlink.com 1.10,2013-04-30 12:38:00,
2013-04-30 05:53:00,39.5,22.0,29.75,North,352,1.0,3.0,49,0.00,,,0.00,weatherlink.com 1.10,2013-04-30 12:53:00,
2013-04-30 06:09:00,39.3,22.0,29.75,North,352,0.0,3.0,50,0.00,,,0.00,weatherlink.com 1.10,2013-04-30 13:09:00,
2013-04-30 06:24:00,39.8,23.0,29.75,North,352,1.0,3.0,51,0.00,,,0.00,weatherlink.com 1.10,2013-04-30 13:24:00,
2013-04-30 06:39:00,40.9,24.0,29.75,North,352,0.0,2.0,51,0.00,,,0.00,weatherlink.com 1.10,2013-04-30 13:39:00,
2013-04-30 06:54:00,42.4,26.0,29.75,North,352,0.0,2.0,53,0.00,,,0.00,weatherlink.com 1.10,2013-04-30 13:54:00,
2013-04-30 07:09:00,44.5,28.0,29.75,North,352,0.0,0.0,53,0.00,,,0.00,weatherlink.com 1.10,2013-04-30 14:09:00,
2013-04-30 07:24:00,47.2,30.0,29.75,North,352,0.0,0.0,52,0.00,,,0.00,weatherlink.com 1.10,2013-04-30 14:24:00,
2013-04-30 07:39:00,51.3,28.0,29.75,North,352,0.0,2.0,40,0.00,,,0.00,weatherlink.com 1.10,2013-04-30 14:39:00,
2013-04-30 07:54:00,56.6,28.0,29.75,SW,215,0.0,4.0,33,0.00,,,0.00,weatherlink.com 1.10,2013-04-30 14:54:00,
2013-04-30 08:09:00,59.5,28.0,29.75,SSW,194,1.0,4.0,30,0.00,,,0.00,weatherlink.com 1.10,2013-04-30 15:09:00,
2013-04-30 08:24:00,61.7,26.0,29.75,SSE,167,2.0,8.0,26,0.00,,,0.00,weatherlink.com 1.10,2013-04-30 15:24:00,
2013-04-30 08:39:00,63.5,25.0,29.75,WSW,255,5.0,8.0,23,0.00,,,0.00,weatherlink.com 1.10,2013-04-30 15:39:00,
2013-04-30 08:54:00,64.1,25.0,29.75,SW,233,0.0,7.0,23,0.00,,,0.00,weatherlink.com 1.10,2013-04-30 15:54:00,
2013-04-30 09:09:00,64.8,24.0,29.74,SSW,198,4.0,9.0,21,0.00,,,0.00,weatherlink.com 1.10,2013-04-30 16:09:00,
2013-04-30 09:24:00,65.0,24.0,29.74,West,276,3.0,11.0,21,0.00,,,0.00,weatherlink.com 1.10,2013-04-30 16:24:00,
2013-04-30 09:39:00,65.8,25.0,29.74,SSW,200,4.0,8.0,21,0.00,,,0.00,weatherlink.com 1.10,2013-04-30 16:39:00,
2013-04-30 09:54:00,65.8,24.0,29.73,WSW,250,4.0,9.0,20,0.00,,,0.00,weatherlink.com 1.10,2013-04-30 16:54:00,
2013-04-30 10:09:00,66.5,24.0,29.73,West,266,3.0,8.0,20,0.00,,,0.00,weatherlink.com 1.10,2013-04-30 17:09:00,
2013-04-30 10:24:00,66.9,23.0,29.73,West,264,4.0,9.0,19,0.00,,,0.00,weatherlink.com 1.10,2013-04-30 17:24:00,
2013-04-30 10:39:00,67.3,24.0,29.73,West,279,5.0,13.0,19,0.00,,,0.00,weatherlink.com 1.10,2013-04-30 17:39:00,
2013-04-30 10:54:00,67.6,22.0,29.73,WSW,253,6.0,13.0,18,0.00,,,0.00,weatherlink.com 1.10,2013-04-30 17:54:00,
2013-04-30 11:09:00,69.0,25.0,29.73,SSW,209,6.0,11.0,19,0.00,,,0.00,weatherlink.com 1.10,2013-04-30 18:09:00,
2013-04-30 11:24:00,69.6,23.0,29.73,WSW,238,7.0,11.0,17,0.00,,,0.00,weatherlink.com 1.10,2013-04-30 18:24:00,
2013-04-30 11:39:00,69.9,23.0,29.73,WSW,249,6.0,13.0,17,0.00,,,0.00,weatherlink.com 1.10,2013-04-30 18:39:00,
2013-04-30 11:54:00,69.5,21.0,29.71,WSW,237,5.0,17.0,16,0.00,,,0.00,weatherlink.com 1.10,2013-04-30 18:54:00,
2013-04-30 12:10:00,70.8,24.0,29.71,WSW,255,7.0,12.0,17,0.00,,,0.00,weatherlink.com 1.10,2013-04-30 19:10:00,
2013-04-30 12:25:00,71.3,20.0,29.71,South,191,2.0,13.0,14,0.00,,,0.00,weatherlink.com 1.10,2013-04-30 19:25:00,
2013-04-30 12:40:00,71.2,18.0,29.71,West,268,9.0,16.0,13,0.00,,,0.00,weatherlink.com 1.10,2013-04-30 19:40:00,
2013-04-30 12:55:00,71.3,20.0,29.70,SSW,208,4.0,17.0,14,0.00,,,0.00,weatherlink.com 1.10,2013-04-30 19:55:00,
2013-04-30 13:10:00,71.0,18.0,29.70,WSW,243,8.0,18.0,13,0.00,,,0.00,weatherlink.com 1.10,2013-04-30 20:10:00,
2013-04-30 13:25:00,71.9,16.0,29.70,South,189,6.0,12.0,12,0.00,,,0.00,weatherlink.com 1.10,2013-04-30 20:25:00,
2013-04-30 13:40:00,72.9,19.0,29.69,WSW,252,15.0,16.0,13,0.00,,,0.00,weatherlink.com 1.10,2013-04-30 20:40:00,
2013-04-30 13:55:00,73.2,19.0,29.69,SSW,198,4.0,22.0,13,0.00,,,0.00,weatherlink.com 1.10,2013-04-30 20:55:00,
2013-04-30 14:10:00,73.1,19.0,29.69,SSW,192,6.0,17.0,13,0.00,,,0.00,weatherlink.com 1.10,2013-04-30 21:10:00,
2013-04-30 14:25:00,72.6,19.0,29.69,SW,224,6.0,18.0,13,0.00,,,0.00,weatherlink.com 1.10,2013-04-30 21:25:00,
2013-04-30 14:40:00,71.8,16.0,29.69,SW,227,7.0,18.0,12,0.00,,,0.00,weatherlink.com 1.10,2013-04-30 21:40:00,
2013-04-30 14:55:00,70.8,17.0,29.68,SSW,198,8.0,22.0,13,0.00,,,0.00,weatherlink.com 1.10,2013-04-30 21:55:00,
2013-04-30 15:10:00,70.8,17.0,29.69,SE,135,9.0,20.0,13,0.00,,,0.00,weatherlink.com 1.10,2013-04-30 22:10:00,
2013-04-30 15:25:00,70.1,15.0,29.69,SSW,199,9.0,15.0,12,0.00,,,0.00,weatherlink.com 1.10,2013-04-30 22:25:00,
2013-04-30 15:40:00,69.9,15.0,29.69,SSW,194,3.0,12.0,12,0.00,,,0.00,weatherlink.com 1.10,2013-04-30 22:40:00,
2013-04-30 15:55:00,69.4,16.0,29.68,South,172,3.0,11.0,13,0.00,,,0.00,weatherlink.com 1.10,2013-04-30 22:55:00,
2013-04-30 16:10:00,70.2,17.0,29.69,South,172,5.0,12.0,13,0.00,,,0.00,weatherlink.com 1.10,2013-04-30 23:10:00,
2013-04-30 16:25:00,70.8,17.0,29.70,SSW,210,5.0,10.0,13,0.00,,,0.00,weatherlink.com 1.10,2013-04-30 23:25:00,
2013-04-30 16:40:00,71.6,20.0,29.69,SSE,168,5.0,10.0,14,0.00,,,0.00,weatherlink.com 1.10,2013-04-30 23:40:00,
2013-04-30 16:55:00,71.2,16.0,29.69,SW,231,5.0,13.0,12,0.00,,,0.00,weatherlink.com 1.10,2013-04-30 23:55:00,
2013-04-30 17:10:00,70.5,15.0,29.70,SW,235,6.0,12.0,12,0.00,,,0.00,weatherlink.com 1.10,2013-05-01 00:10:00,
2013-04-30 17:25:00,69.8,15.0,29.70,SSW,195,3.0,15.0,12,0.00,,,0.00,weatherlink.com 1.10,2013-05-01 00:25:00,
2013-04-30 17:40:00,69.4,14.0,29.69,SSE,158,8.0,14.0,12,0.00,,,0.00,weatherlink.com 1.10,2013-05-01 00:40:00,
2013-04-30 17:55:00,69.0,16.0,29.69,SW,217,2.0,10.0,13,0.00,,,0.00,weatherlink.com 1.10,2013-05-01 00:55:00,
2013-04-30 18:10:00,68.3,14.0,29.70,SSW,198,7.0,11.0,12,0.00,,,0.00,weatherlink.com 1.10,2013-05-01 01:10:00,
2013-04-30 18:25:00,67.5,13.0,29.69,South,184,2.0,13.0,12,0.00,,,0.00,weatherlink.com 1.10,2013-05-01 01:25:00,
2013-04-30 18:40:00,66.5,14.0,29.70,SW,218,1.0,16.0,13,0.00,,,0.00,weatherlink.com 1.10,2013-05-01 01:40:00,
2013-04-30 18:55:00,65.5,15.0,29.70,SSW,196,1.0,7.0,14,0.00,,,0.00,weatherlink.com 1.10,2013-05-01 01:55:00,
2013-04-30 19:10:00,64.9,14.0,29.71,SSW,208,2.0,12.0,14,0.00,,,0.00,weatherlink.com 1.10,2013-05-01 02:10:00,
2013-04-30 19:25:00,64.4,14.0,29.71,West,270,3.0,11.0,14,0.00,,,0.00,weatherlink.com 1.10,2013-05-01 02:25:00,
2013-04-30 19:40:00,63.9,14.0,29.72,WSW,253,1.0,9.0,14,0.00,,,0.00,weatherlink.com 1.10,2013-05-01 02:40:00,
2013-04-30 19:55:00,63.7,13.0,29.71,SSW,195,3.0,11.0,14,0.00,,,0.00,weatherlink.com 1.10,2013-05-01 02:55:00,
2013-04-30 20:10:00,63.2,15.0,29.72,SW,224,5.0,7.0,15,0.00,,,0.00,weatherlink.com 1.10,2013-05-01 03:10:00,
2013-04-30 20:25:00,63.2,15.0,29.72,SW,236,0.0,6.0,15,0.00,,,0.00,weatherlink.com 1.10,2013-05-01 03:25:00,
2013-04-30 20:40:00,62.9,16.0,29.73,South,176,3.0,8.0,16,0.00,,,0.00,weatherlink.com 1.10,2013-05-01 03:40:00,
2013-04-30 20:55:00,62.7,16.0,29.73,South,178,1.0,9.0,16,0.00,,,0.00,weatherlink.com 1.10,2013-05-01 03:55:00,
2013-04-30 21:11:00,62.3,17.0,29.74,WSW,240,2.0,13.0,17,0.00,,,0.00,weatherlink.com 1.10,2013-05-01 04:11:00,
2013-04-30 21:25:00,62.0,16.0,29.75,SE,140,6.0,8.0,17,0.00,,,0.00,weatherlink.com 1.10,2013-05-01 04:25:00,
2013-04-30 21:40:00,61.4,16.0,29.75,WSW,254,6.0,8.0,17,0.00,,,0.00,weatherlink.com 1.10,2013-05-01 04:40:00,
2013-04-30 21:55:00,61.4,15.0,29.75,SSW,210,3.0,9.0,16,0.00,,,0.00,weatherlink.com 1.10,2013-05-01 04:55:00,
2013-04-30 22:10:00,61.1,14.0,29.76,SSE,162,1.0,7.0,16,0.00,,,0.00,weatherlink.com 1.10,2013-05-01 05:10:00,
2013-04-30 22:26:00,60.5,14.0,29.77,SW,218,2.0,7.0,16,0.00,,,0.00,weatherlink.com 1.10,2013-05-01 05:26:00,
2013-04-30 22:40:00,60.0,13.0,29.77,WSW,238,2.0,6.0,16,0.00,,,0.00,weatherlink.com 1.10,2013-05-01 05:40:00,
2013-04-30 22:55:00,59.2,14.0,29.78,SSE,164,3.0,8.0,17,0.00,,,0.00,weatherlink.com 1.10,2013-05-01 05:55:00,
2013-04-30 23:10:00,58.9,14.0,29.78,SW,227,0.0,5.0,17,0.00,,,0.00,weatherlink.com 1.10,2013-05-01 06:10:00,
2013-04-30 23:25:00,58.3,13.0,29.78,SW,229,0.0,4.0,17,0.00,,,0.00,weatherlink.com 1.10,2013-05-01 06:25:00,
2013-04-30 23:40:00,57.7,14.0,29.78,SSW,208,0.0,4.0,18,0.00,,,0.00,weatherlink.com 1.10,2013-05-01 06:40:00,
2013-04-30 23:55:00,56.8,15.0,29.79,SSW,208,0.0,2.0,19,0.00,,,0.00,weatherlink.com 1.10,2013-05-01 06:55:00,